Time;durP1;ratioP1;P1;durP2;ratioP2;P2;SDS_P1;SDS_P2;PMS_P1;PMS_P2;Temp;Humidity;BMP_temperature;BMP_pressure;BME280_temperature;BME280_humidity;BME280_pressure;Samples;Min_cycle;Max_cycle;Signal;HPM_P1;HPM_P2
2022/05/03 00:01:45;;;;;;;8.52;5.50;;;;;;;9.27;65.50;101869.69;5073280;28;20074;-70
2022/05/03 00:04:42;;;;;;;6.80;5.47;;;;;;;9.29;64.92;101867.94;5079476;28;20145;-70
2022/05/03 00:07:55;;;;;;;6.38;5.25;;;;;;;9.26;65.04;101874.03;5083309;28;20033;-70
2022/05/03 00:10:24;;;;;;;8.48;5.50;;;;;;;9.21;66.51;101874.88;5089066;28;20523;-70
2022/05/03 00:12:57;;;;;;;7.38;5.15;;;;;;;9.18;66.28;101875.75;5082034;28;20020;-70
2022/05/03 00:15:24;;;;;;;6.03;5.05;;;;;;;9.13;66.46;101875.75;5091503;28;20028;-70
2022/05/03 00:17:52;;;;;;;6.93;5.50;;;;;;;9.13;66.53;101867.09;5077991;28;20455;-70
2022/05/03 00:20:17;;;;;;;7.45;5.15;;;;;;;9.16;66.78;101861.91;5090004;28;20031;-70
2022/05/03 00:22:43;;;;;;;7.65;5.28;;;;;;;9.11;66.00;101861.03;5089408;28;20031;-70
2022/05/03 00:25:09;;;;;;;6.70;5.50;;;;;;;9.11;66.12;101851.47;5090676;28;20119;-71
2022/05/03 00:27:35;;;;;;;7.38;5.22;;;;;;;9.07;66.41;101852.34;5081586;28;20067;-70
2022/05/03 00:30:02;;;;;;;7.10;5.32;;;;;;;8.98;66.09;101862.75;5071537;28;20069;-70
2022/05/03 00:32:28;;;;;;;6.38;5.20;;;;;;;9.00;66.92;101862.78;5072962;28;20512;-70
2022/05/03 00:34:57;;;;;;;7.47;5.45;;;;;;;8.89;67.15;101850.66;5086689;28;20031;-70
2022/05/03 00:37:22;;;;;;;7.43;5.15;;;;;;;8.88;67.28;101853.22;5070479;28;20047;-70
2022/05/03 00:39:47;;;;;;;6.75;5.07;;;;;;;8.85;67.22;101853.22;5085749;28;20373;-70
2022/05/03 00:42:19;;;;;;;7.72;6.10;;;;;;;8.81;67.04;101856.72;5083987;28;20066;-70
2022/05/03 00:45:00;;;;;;;7.65;5.40;;;;;;;8.78;66.41;101864.50;5090374;28;20020;-70
2022/05/03 00:47:50;;;;;;;9.82;5.80;;;;;;;8.73;67.10;101856.72;5087049;28;20383;-70
2022/05/03 00:50:34;;;;;;;7.72;5.10;;;;;;;8.75;66.58;101859.31;5082919;28;20032;-70
2022/05/03 00:53:29;;;;;;;6.43;5.28;;;;;;;8.67;65.67;101848.91;5088430;28;20148;-70
2022/05/03 00:56:19;;;;;;;6.70;5.03;;;;;;;8.63;66.16;101858.44;5056857;28;20043;-70
2022/05/03 00:58:51;;;;;;;6.82;5.38;;;;;;;8.58;68.10;101862.75;5087137;28;20483;-70
2022/05/03 01:01:34;;;;;;;8.48;5.38;;;;;;;8.56;67.66;101861.00;5084776;28;20059;-70
2022/05/03 01:04:06;;;;;;;6.88;5.05;;;;;;;8.47;67.67;101851.50;5081967;28;20043;-70
2022/05/03 01:06:46;;;;;;;7.22;5.07;;;;;;;8.44;67.60;101856.69;5081238;28;20042;-70
2022/05/03 01:09:11;;;;;;;8.10;5.35;;;;;;;8.34;67.81;101862.69;5088509;28;20558;-70
2022/05/03 01:11:48;;;;;;;7.30;5.15;;;;;;;8.28;68.30;101857.50;5090549;28;20032;-70
2022/05/03 01:14:38;;;;;;;8.57;5.57;;;;;;;8.29;68.19;101854.88;5089128;28;20107;-70
2022/05/03 01:17:16;;;;;;;8.52;5.55;;;;;;;8.26;68.23;101848.81;5090154;28;20119;-70
2022/05/03 01:19:54;;;;;;;6.18;4.90;;;;;;;8.26;67.74;101849.69;5086498;28;20384;-70
2022/05/03 01:22:41;;;;;;;7.93;4.95;;;;;;;8.20;67.83;101847.91;5089316;28;20051;-70
2022/05/03 01:25:23;;;;;;;7.75;5.20;;;;;;;8.16;68.98;101851.38;5088220;28;20036;-70
2022/05/03 01:28:05;;;;;;;6.55;5.07;;;;;;;8.12;69.66;101846.19;5090908;28;20032;-71
2022/05/03 01:30:31;;;;;;;6.65;5.32;;;;;;;8.07;69.83;101856.53;5088956;28;20031;-71
2022/05/03 01:33:05;;;;;;;7.57;5.30;;;;;;;8.03;69.69;101848.75;5074112;28;20024;-71
2022/05/03 01:35:37;;;;;;;6.63;5.25;;;;;;;8.00;69.84;101843.56;5078854;28;20028;-70
2022/05/03 01:38:18;;;;;;;8.35;5.75;;;;;;;7.93;69.77;101843.53;5089441;28;20028;-71
2022/05/03 01:41:13;;;;;;;7.60;4.85;;;;;;;7.86;70.30;101846.09;5089709;28;20047;-71
2022/05/03 01:44:08;;;;;;;8.82;5.55;;;;;;;7.87;69.63;101848.69;5076370;28;20443;-71
2022/05/03 01:46:38;;;;;;;9.32;5.75;;;;;;;7.79;70.88;101852.13;5071243;28;20037;-70
2022/05/03 01:52:26;;;;;;;9.18;5.65;;;;;;;7.70;71.21;101845.16;5088866;28;20055;-70
2022/05/03 01:55:03;;;;;;;8.70;5.95;;;;;;;7.60;71.21;101844.25;5088156;28;20111;-71
2022/05/03 01:57:47;;;;;;;6.82;5.40;;;;;;;7.56;71.83;101847.72;5080820;28;20064;-70
2022/05/03 02:00:13;;;;;;;8.30;5.65;;;;;;;7.47;71.99;101845.06;5081160;28;20028;-71
2022/05/03 02:02:50;;;;;;;9.43;5.60;;;;;;;7.45;71.40;101833.78;5075673;28;20035;-71
2022/05/03 02:06:00;;;;;;;9.15;6.18;;;;;;;7.49;71.22;101844.22;5091139;28;20437;-70
2022/05/03 02:08:32;;;;;;;7.13;5.30;;;;;;;7.43;72.22;101833.78;5093888;28;20032;-71
2022/05/03 02:11:19;;;;;;;7.60;5.70;;;;;;;7.46;71.60;101845.94;5092523;28;20467;-70
2022/05/03 02:17:13;;;;;;;8.93;5.97;;;;;;;7.40;72.58;101840.69;5092699;28;20102;-70
2022/05/03 02:20:03;;;;;;;10.02;5.60;;;;;;;7.41;72.46;101834.66;5055478;28;20059;-70
2022/05/03 02:23:10;;;;;;;7.25;5.38;;;;;;;7.39;71.52;101831.16;5027458;28;20080;-70
2022/05/03 02:25:35;;;;;;;6.30;5.43;;;;;;;7.35;72.55;101835.47;5073197;28;20040;-71
2022/05/03 02:28:14;;;;;;;6.82;5.38;;;;;;;7.32;72.44;101837.19;5088028;28;20032;-70
2022/05/03 02:30:43;;;;;;;6.40;5.20;;;;;;;7.30;72.99;101834.59;5074351;28;20032;-70
2022/05/03 02:33:25;;;;;;;6.53;5.32;;;;;;;7.30;71.99;101839.78;5082264;28;20050;-71
2022/05/03 02:35:58;;;;;;;8.35;5.40;;;;;;;7.23;72.39;101838.00;5076445;28;20078;-70
2022/05/03 02:39:02;;;;;;;6.47;5.23;;;;;;;7.23;71.83;101835.41;5077945;28;20031;-70
2022/05/03 02:41:32;;;;;;;7.30;5.65;;;;;;;7.24;72.62;101834.56;5063077;28;20314;-70
2022/05/03 02:43:58;;;;;;;6.13;5.40;;;;;;;7.23;72.57;101838.88;5090772;28;20032;-71
2022/05/03 02:46:56;;;;;;;8.07;5.38;;;;;;;7.17;71.99;101838.84;5073951;28;20024;-70
2022/05/03 02:49:39;;;;;;;6.85;5.68;;;;;;;7.07;72.41;101843.97;5083954;28;20036;-70
2022/05/03 02:52:31;;;;;;;7.50;5.67;;;;;;;7.02;72.79;101843.91;5088688;28;20031;-71
2022/05/03 02:55:21;;;;;;;9.90;5.32;;;;;;;7.03;72.96;101843.06;5078677;28;20322;-70
2022/05/03 02:58:42;;;;;;;8.27;5.40;;;;;;;7.01;71.55;101847.38;5089611;28;20039;-70
2022/05/03 03:04:15;;;;;;;7.25;5.35;;;;;;;6.90;73.60;101843.81;5007165;28;20053;-71
2022/05/03 03:06:43;;;;;;;6.35;5.43;;;;;;;6.77;73.65;101843.72;5078792;28;20033;-70
2022/05/03 03:09:15;;;;;;;6.63;5.32;;;;;;;6.74;74.50;101843.69;5079759;28;20467;-70
2022/05/03 03:11:55;;;;;;;9.35;6.07;;;;;;;6.70;73.42;101841.94;5093507;28;20032;-70
2022/05/03 03:14:35;;;;;;;9.25;5.90;;;;;;;6.67;74.10;101839.31;5091166;28;20115;-71
2022/05/03 03:17:05;;;;;;;9.93;6.00;;;;;;;6.68;74.04;101838.47;5091468;28;20389;-70
2022/05/03 03:19:46;;;;;;;7.78;5.82;;;;;;;6.60;74.46;101839.25;5092829;28;20107;-70
2022/05/03 03:22:13;;;;;;;8.70;5.38;;;;;;;6.58;74.13;101836.66;5081140;28;20588;-70
2022/05/03 03:24:40;;;;;;;7.65;5.65;;;;;;;6.49;74.69;101831.38;5078539;28;20055;-70
2022/05/03 03:27:06;;;;;;;7.00;5.05;;;;;;;6.42;74.86;101838.22;5072732;28;20028;-70
2022/05/03 03:29:32;;;;;;;8.63;5.80;;;;;;;6.40;75.55;101849.41;5081803;28;20379;-70
2022/05/03 03:32:00;;;;;;;7.13;5.82;;;;;;;6.41;75.53;101841.69;5092452;28;20471;-70
2022/05/03 03:34:27;;;;;;;7.07;5.50;;;;;;;6.40;75.82;101842.50;5085144;28;20115;-71
2022/05/03 03:37:01;;;;;;;8.23;6.05;;;;;;;6.32;75.17;101842.44;5072524;28;20029;-70
2022/05/03 03:39:30;;;;;;;6.53;5.43;;;;;;;6.28;75.43;101843.28;5086794;28;20476;-70
2022/05/03 03:41:58;;;;;;;10.27;6.22;;;;;;;6.24;76.06;101838.03;5091842;28;20074;-70
2022/05/03 03:44:24;;;;;;;7.32;5.20;;;;;;;6.24;76.16;101838.91;5087481;28;20115;-70
2022/05/03 03:46:50;;;;;;;7.43;6.00;;;;;;;6.22;75.75;101832.84;5092796;28;20103;-70
2022/05/03 03:49:15;;;;;;;7.88;6.00;;;;;;;6.23;75.77;101839.75;5084971;28;20107;-71
2022/05/03 03:51:41;;;;;;;8.20;5.35;;;;;;;6.16;76.07;101832.78;5078896;28;20209;-70
2022/05/03 03:54:07;;;;;;;7.85;5.88;;;;;;;6.15;76.53;101836.25;5074083;28;21525;-70
2022/05/03 03:56:32;;;;;;;8.00;5.93;;;;;;;6.20;76.26;101833.69;5080061;28;20535;-70
2022/05/03 03:58:58;;;;;;;11.13;6.55;;;;;;;6.13;76.29;101845.69;5081923;28;20074;-70
2022/05/03 04:01:25;;;;;;;8.75;6.55;;;;;;;6.09;76.59;101831.84;5084559;28;20529;-70
2022/05/03 04:03:51;;;;;;;8.77;5.55;;;;;;;6.05;76.23;101830.09;5090322;28;20527;-70
2022/05/03 04:06:17;;;;;;;8.57;6.20;;;;;;;6.09;76.55;101833.59;5089801;28;20024;-70
2022/05/03 04:08:42;;;;;;;7.90;6.05;;;;;;;6.10;76.75;101836.16;5074373;28;20028;-70
2022/05/03 04:11:17;;;;;;;7.50;6.05;;;;;;;6.11;76.33;101831.84;5073480;28;20503;-71
2022/05/03 04:13:45;;;;;;;8.13;6.03;;;;;;;6.07;76.87;101828.38;5087922;28;20059;-70
2022/05/03 04:16:11;;;;;;;7.78;6.00;;;;;;;6.10;76.79;101838.75;5085860;28;20020;-70
2022/05/03 04:18:46;;;;;;;10.20;6.10;;;;;;;6.01;77.21;101841.25;5075687;28;20376;-71
2022/05/03 04:21:18;;;;;;;7.15;5.65;;;;;;;5.98;77.31;101840.34;5086701;28;20357;-70
2022/05/03 04:23:45;;;;;;;8.70;6.25;;;;;;;5.94;77.78;101841.16;5080213;28;20037;-70
2022/05/03 04:26:11;;;;;;;9.85;6.07;;;;;;;5.87;77.58;101842.78;5082373;28;20024;-70
2022/05/03 04:28:37;;;;;;;10.25;6.50;;;;;;;5.89;77.78;101837.63;5082947;28;20021;-70
2022/05/03 04:31:02;;;;;;;10.35;6.40;;;;;;;5.93;77.89;101844.63;5090205;28;20394;-70
2022/05/03 04:33:28;;;;;;;8.00;6.18;;;;;;;5.83;78.27;101828.06;5088928;28;20071;-70
2022/05/03 04:35:53;;;;;;;10.35;6.38;;;;;;;5.95;77.85;101842.91;5075113;28;20024;-70
2022/05/03 04:38:18;;;;;;;10.82;6.70;;;;;;;5.91;78.10;101841.97;5091155;28;20032;-70
2022/05/03 04:40:43;;;;;;;11.90;6.68;;;;;;;5.91;78.43;101846.28;5089699;28;20043;-70
2022/05/03 04:43:10;;;;;;;8.32;6.45;;;;;;;5.94;77.84;101852.38;5089908;28;20031;-71
2022/05/03 04:45:35;;;;;;;8.60;6.57;;;;;;;5.96;77.95;101839.47;5074934;28;20037;-70
2022/05/03 04:48:00;;;;;;;9.02;6.63;;;;;;;6.00;78.10;101843.81;5078688;28;20035;-70
2022/05/03 04:50:26;;;;;;;8.40;6.22;;;;;;;6.06;77.55;101857.72;5081426;28;20032;-70
2022/05/03 04:52:51;;;;;;;9.73;6.45;;;;;;;6.04;78.30;101854.22;5081999;28;20081;-71
2022/05/03 04:55:16;;;;;;;7.28;6.32;;;;;;;6.02;78.53;101852.50;5088412;28;20546;-71
2022/05/03 04:57:42;;;;;;;8.10;6.25;;;;;;;6.05;79.01;101860.28;5091109;28;20032;-70
2022/05/03 05:00:07;;;;;;;9.65;7.07;;;;;;;6.13;78.76;101858.66;5091784;28;20032;-71
2022/05/03 05:02:33;;;;;;;15.60;7.15;;;;;;;6.14;79.20;101862.97;5088610;28;20044;-71
2022/05/03 05:04:58;;;;;;;10.45;6.95;;;;;;;6.17;78.94;101860.41;5091241;28;20028;-70
2022/05/03 05:07:23;;;;;;;9.07;6.65;;;;;;;6.22;79.35;101858.75;5087768;28;20034;-71
2022/05/03 05:12:32;;;;;;;8.63;6.78;;;;;;;6.38;78.61;101864.09;5078451;28;20561;-70
2022/05/03 05:14:58;;;;;;;9.90;6.90;;;;;;;6.46;78.85;101868.47;5088497;28;20036;-70
2022/05/03 05:17:23;;;;;;;10.75;7.28;;;;;;;6.50;78.61;101866.78;5083810;28;20024;-70
2022/05/03 05:19:48;;;;;;;12.88;7.40;;;;;;;6.58;78.40;101865.16;5089704;28;20028;-70
2022/05/03 05:22:13;;;;;;;11.43;7.25;;;;;;;6.57;78.90;101861.69;5091104;28;20032;-70
2022/05/03 05:24:39;;;;;;;10.48;7.63;;;;;;;6.63;78.60;101875.53;5086547;28;20028;-70
2022/05/03 05:27:04;;;;;;;9.50;7.07;;;;;;;6.71;78.48;101873.91;5092617;28;20028;-70
2022/05/03 05:29:29;;;;;;;11.73;7.53;;;;;;;6.75;78.20;101876.53;5093123;28;20375;-70
2022/05/03 05:31:54;;;;;;;10.13;7.45;;;;;;;6.85;77.62;101881.81;5093906;28;20470;-70
2022/05/03 05:34:20;;;;;;;9.52;6.97;;;;;;;6.82;77.62;101872.25;5089102;28;20043;-70
2022/05/03 05:36:45;;;;;;;11.48;7.78;;;;;;;6.96;76.82;101887.94;5094992;28;20040;-70
2022/05/03 05:39:10;;;;;;;10.25;7.72;;;;;;;7.02;76.50;101880.19;5089648;28;20022;-70
2022/05/03 05:41:36;;;;;;;10.55;8.05;;;;;;;7.13;76.98;101883.75;5078219;28;20033;-70
2022/05/03 05:44:03;;;;;;;10.82;8.35;;;;;;;7.21;76.88;101889.84;5076220;28;20024;-70
2022/05/03 05:46:28;;;;;;;11.27;7.60;;;;;;;7.32;76.40;101887.31;5088868;28;20108;-70
2022/05/03 05:48:53;;;;;;;9.95;7.93;;;;;;;7.40;76.42;101887.41;5085497;28;20103;-70
2022/05/03 05:51:19;;;;;;;13.07;8.75;;;;;;;7.46;75.30;101884.84;5091097;28;20024;-70
2022/05/03 05:53:44;;;;;;;12.43;7.93;;;;;;;7.50;75.57;101894.38;5088191;28;20043;-70
2022/05/03 05:56:10;;;;;;;17.40;8.15;;;;;;;7.58;75.21;101897.88;5080117;28;20500;-71
2022/05/03 05:58:37;;;;;;;10.48;7.90;;;;;;;7.60;75.33;101888.38;5081705;28;20137;-70
2022/05/03 06:01:02;;;;;;;13.15;7.80;;;;;;;7.66;75.26;101891.00;5081466;28;20073;-71
2022/05/03 06:03:28;;;;;;;14.40;8.25;;;;;;;7.73;74.71;101887.56;5087110;28;20426;-71
2022/05/03 06:05:54;;;;;;;12.73;8.25;;;;;;;7.73;74.20;101891.91;5085306;28;20028;-70
2022/05/03 06:08:20;;;;;;;14.05;7.63;;;;;;;7.76;73.02;101885.88;5090387;28;20404;-70
2022/05/03 06:10:45;;;;;;;10.65;8.30;;;;;;;7.81;73.18;101886.75;5092502;28;20028;-70
2022/05/03 06:13:11;;;;;;;11.73;7.95;;;;;;;7.81;73.32;101889.34;5082568;28;20492;-71
2022/05/03 06:15:36;;;;;;;12.05;8.30;;;;;;;7.87;73.06;101889.38;5081864;28;20025;-70
2022/05/03 06:18:02;;;;;;;11.15;7.68;;;;;;;7.90;72.49;101890.25;5073887;28;20020;-71
2022/05/03 06:20:27;;;;;;;9.45;7.57;;;;;;;7.98;72.39;101903.28;5075128;28;20024;-70
2022/05/03 06:22:52;;;;;;;9.75;7.47;;;;;;;8.02;72.40;101899.84;5074665;28;20033;-70
2022/05/03 06:25:18;;;;;;;8.77;7.25;;;;;;;8.09;71.09;101896.38;5082005;28;20024;-70
2022/05/03 06:27:43;;;;;;;10.52;7.07;;;;;;;8.16;71.20;101887.75;5076618;28;20044;-71
2022/05/03 06:30:09;;;;;;;10.73;7.22;;;;;;;8.28;70.55;101896.47;5075192;28;20052;-70
2022/05/03 06:32:36;;;;;;;11.75;7.82;;;;;;;8.31;70.33;101896.47;5074529;28;20050;-70
2022/05/03 06:35:01;;;;;;;11.20;7.68;;;;;;;8.44;70.22;101900.88;5074849;28;20365;-70
2022/05/03 06:37:26;;;;;;;10.82;7.00;;;;;;;8.51;69.84;101894.81;5080012;28;20035;-70
2022/05/03 06:39:52;;;;;;;10.45;7.38;;;;;;;8.58;68.98;101895.69;5088800;28;20052;-70
2022/05/03 06:42:17;;;;;;;11.40;7.40;;;;;;;8.66;68.72;101892.25;5090361;28;20449;-70
2022/05/03 06:44:43;;;;;;;10.38;7.85;;;;;;;8.74;67.56;101884.44;5088088;28;20373;-71
2022/05/03 06:47:08;;;;;;;10.38;7.15;;;;;;;8.85;67.12;101884.44;5073082;28;20464;-70
2022/05/03 06:49:34;;;;;;;11.93;6.90;;;;;;;8.95;66.41;101893.97;5082285;28;20476;-70
2022/05/03 06:51:59;;;;;;;7.93;6.72;;;;;;;9.08;66.26;101887.91;5073930;28;20418;-70
2022/05/03 06:54:24;;;;;;;13.20;6.97;;;;;;;9.21;66.70;101895.69;5076835;28;20062;-71
2022/05/03 06:56:51;;;;;;;9.98;6.40;;;;;;;9.32;65.85;101902.63;5091826;28;20048;-70
2022/05/03 06:59:16;;;;;;;9.30;5.78;;;;;;;9.44;64.21;101898.28;5093747;28;20480;-71
2022/05/03 07:01:42;;;;;;;7.70;5.22;;;;;;;9.52;61.80;101899.13;5093293;28;20027;-70
2022/05/03 07:04:07;;;;;;;6.88;5.00;;;;;;;9.56;61.05;101901.72;5089005;28;21848;-71
2022/05/03 07:06:33;;;;;;;5.95;4.70;;;;;;;9.65;58.20;101902.56;5083859;28;20028;-71
2022/05/03 07:08:58;;;;;;;5.68;4.22;;;;;;;9.75;57.52;101906.88;5093358;28;20032;-70
2022/05/03 07:11:23;;;;;;;9.43;4.50;;;;;;;9.81;58.02;101896.44;5090035;28;20425;-71
2022/05/03 07:13:48;;;;;;;8.05;4.90;;;;;;;9.95;58.06;101904.22;5091747;28;20028;-76
2022/05/03 07:16:14;;;;;;;7.07;4.38;;;;;;;10.08;55.95;101909.34;5093059;28;20031;-70
2022/05/03 07:24:07;;;;;;;;;;;;;;;10.28;57.51;101905.81;5093714;28;20118;-70
2022/05/03 07:26:32;;;;;;;8.05;4.78;;;;;;;10.38;53.78;101907.50;5093550;28;19999;-71
2022/05/03 07:28:58;;;;;;;7.32;4.90;;;;;;;10.49;53.83;101902.22;5093127;28;20030;-70
2022/05/03 07:31:23;;;;;;;6.32;4.38;;;;;;;10.59;53.02;101914.31;5093098;28;20024;-70
2022/05/03 07:33:49;;;;;;;8.60;4.75;;;;;;;10.63;52.08;101915.19;5093278;28;20057;-70
2022/05/03 07:36:17;;;;;;;8.98;4.30;;;;;;;10.64;52.11;101912.56;5092563;28;20381;-71
2022/05/03 07:38:43;;;;;;;5.25;4.10;;;;;;;10.73;50.71;101912.50;5093139;28;20112;-71
2022/05/03 07:41:08;;;;;;;5.63;3.63;;;;;;;10.85;50.50;101916.75;5093235;28;20107;-71
2022/05/03 07:43:34;;;;;;;9.13;3.25;;;;;;;10.99;50.83;101917.53;5092167;28;20036;-71
2022/05/03 07:46:00;;;;;;;3.97;3.10;;;;;;;11.06;50.72;101912.25;5093374;28;20031;-71
2022/05/03 07:48:26;;;;;;;4.45;3.25;;;;;;;11.17;48.89;101908.66;5093005;28;20024;-70
2022/05/03 07:50:51;;;;;;;4.95;3.17;;;;;;;11.28;48.56;101916.41;5092093;28;20077;-71
2022/05/03 07:53:17;;;;;;;4.32;2.97;;;;;;;11.34;47.94;101905.03;5093053;28;20472;-70
2022/05/03 07:55:47;;;;;;;4.10;3.70;;;;;;;11.41;48.43;101904.97;5092592;28;20051;-71
2022/05/03 07:58:14;;;;;;;4.95;3.50;;;;;;;11.50;47.40;101911.81;5092105;28;20040;-71
2022/05/03 08:00:39;;;;;;;7.25;4.10;;;;;;;11.58;47.71;101906.53;5092871;28;20024;-71
2022/05/03 08:03:04;;;;;;;5.38;3.97;;;;;;;11.64;47.75;101904.72;5092435;28;20032;-71
2022/05/03 08:05:29;;;;;;;9.25;4.32;;;;;;;11.71;47.35;101911.59;5092583;28;20058;-70
2022/05/03 08:07:55;;;;;;;7.55;4.18;;;;;;;11.80;47.50;101905.38;5093111;28;20032;-71
2022/05/03 08:10:20;;;;;;;9.35;4.43;;;;;;;11.91;48.05;101916.63;5092419;28;20031;-70
2022/05/03 08:12:50;;;;;;;6.43;4.10;;;;;;;12.03;46.12;101904.28;5085919;28;20059;-71
2022/05/03 08:15:16;;;;;;;4.88;4.15;;;;;;;12.13;47.35;101903.28;5082361;28;20031;-71
2022/05/03 08:17:41;;;;;;;7.05;4.20;;;;;;;12.22;47.20;101907.53;5077831;28;20628;-71
2022/05/03 08:20:07;;;;;;;5.72;4.30;;;;;;;12.29;46.89;101901.34;5088046;28;20118;-70
2022/05/03 08:22:34;;;;;;;6.32;4.57;;;;;;;12.44;47.22;101908.97;5083949;28;20514;-70
2022/05/03 08:25:00;;;;;;;5.97;4.18;;;;;;;12.54;47.09;101912.31;5071881;28;20024;-70
2022/05/03 08:27:25;;;;;;;7.78;4.60;;;;;;;12.56;46.03;101902.72;5071536;28;20060;-71
2022/05/03 08:29:50;;;;;;;6.18;4.57;;;;;;;12.67;46.69;101910.41;5074293;28;20068;-72
2022/05/03 08:32:15;;;;;;;10.98;5.30;;;;;;;12.77;47.54;101917.22;5087038;28;20024;-72
2022/05/03 08:34:41;;;;;;;6.35;5.13;;;;;;;12.85;45.33;101917.94;5091961;28;20101;-72
2022/05/03 08:42:33;;;;;;;;;;;;;;;13.09;47.29;101914.06;5078672;28;20119;-72
2022/05/03 08:45:01;;;;;;;6.10;4.70;;;;;;;13.12;46.51;101919.25;5086386;28;20346;-72
2022/05/03 08:47:28;;;;;;;8.82;5.63;;;;;;;13.26;45.72;101913.81;5086037;28;20333;-72
2022/05/03 08:50:07;;;;;;;8.70;5.88;;;;;;;13.38;47.12;101905.75;5081215;28;20056;-72
2022/05/03 08:52:38;;;;;;;10.63;6.40;;;;;;;13.50;47.07;101910.75;5075264;28;20024;-72
2022/05/03 08:55:04;;;;;;;9.82;6.90;;;;;;;13.66;47.24;101915.69;5073544;28;20468;-72
2022/05/03 08:57:30;;;;;;;8.48;6.20;;;;;;;13.79;47.48;101910.19;5091303;28;20055;-72
2022/05/03 08:59:56;;;;;;;9.20;7.05;;;;;;;13.85;47.10;101913.59;5080334;28;20039;-72
2022/05/03 09:02:22;;;;;;;8.75;6.43;;;;;;;13.97;48.70;101915.97;5090240;28;20122;-72
2022/05/03 09:04:47;;;;;;;8.98;6.32;;;;;;;14.13;48.16;101906.88;5086145;28;20107;-72
2022/05/03 09:07:21;;;;;;;10.73;7.05;;;;;;;14.29;48.83;101913.53;5070936;28;20043;-72
2022/05/03 09:09:48;;;;;;;7.82;5.68;;;;;;;14.49;46.81;101917.47;5071264;28;20166;-73
2022/05/03 09:12:32;;;;;;;11.27;6.80;;;;;;;14.54;47.54;101915.63;5071708;28;20048;-73
2022/05/03 09:15:02;;;;;;;11.23;7.05;;;;;;;14.56;47.24;101915.59;5081167;28;20024;-72
2022/05/03 09:17:38;;;;;;;9.63;6.22;;;;;;;14.63;47.33;101909.31;5072669;28;20063;-73
2022/05/03 09:25:53;;;;;;;7.63;5.88;;;;;;;14.88;47.01;101912.22;5071692;28;20090;-72
2022/05/03 09:28:21;;;;;;;9.77;6.00;;;;;;;14.96;46.84;101918.13;5070791;28;20476;-73
2022/05/03 09:30:52;;;;;;;9.68;6.60;;;;;;;15.02;46.82;101915.38;5070947;28;20099;-72
2022/05/03 09:33:19;;;;;;;9.85;6.15;;;;;;;15.06;45.88;101910.91;5083905;28;20020;-72
2022/05/03 09:35:46;;;;;;;11.50;7.20;;;;;;;15.16;46.88;101912.38;5069412;28;20048;-72
2022/05/03 09:38:11;;;;;;;9.95;6.18;;;;;;;15.27;45.94;101915.63;5072300;28;20055;-72
2022/05/03 09:40:46;;;;;;;8.90;6.53;;;;;;;15.38;46.98;101917.94;5072161;28;20021;-73
2022/05/03 09:43:13;;;;;;;9.10;5.93;;;;;;;15.38;47.64;101913.56;5068927;28;20027;-73
2022/05/03 09:45:39;;;;;;;9.75;6.60;;;;;;;15.42;45.47;101907.31;5071316;28;20025;-72
2022/05/03 09:48:05;;;;;;;13.05;7.18;;;;;;;15.43;47.96;101890.66;5071367;28;20020;-72
2022/05/03 09:50:42;;;;;;;9.10;6.68;;;;;;;15.57;46.64;101902.56;5070458;28;20036;-72
2022/05/03 09:53:12;;;;;;;7.22;5.63;;;;;;;15.65;45.37;101908.44;5071170;28;20020;-72
2022/05/03 09:55:39;;;;;;;9.57;5.97;;;;;;;15.70;46.58;101908.38;5070319;28;20049;-72
2022/05/03 09:58:07;;;;;;;8.15;6.28;;;;;;;15.87;46.93;101906.97;5084092;28;20392;-71
2022/05/03 10:00:35;;;;;;;12.65;6.28;;;;;;;16.06;45.76;101909.94;5091267;28;20085;-71
2022/05/03 10:03:02;;;;;;;7.50;5.72;;;;;;;16.15;47.31;101901.78;5091003;28;20445;-71
2022/05/03 10:05:28;;;;;;;7.80;6.03;;;;;;;16.07;45.76;101901.13;5089016;28;20082;-71
2022/05/03 10:07:54;;;;;;;8.73;5.22;;;;;;;16.14;46.14;101905.31;5086937;28;20074;-71
2022/05/03 10:10:22;;;;;;;7.57;5.45;;;;;;;16.11;45.18;101894.00;5090619;28;20111;-71
2022/05/03 10:12:50;;;;;;;7.63;6.40;;;;;;;16.12;44.75;101901.88;5076012;28;20041;-71
2022/05/03 10:21:11;;;;;;;9.15;6.78;;;;;;;16.65;45.15;101890.59;5074558;28;20399;-72
2022/05/03 10:23:36;;;;;;;10.75;7.50;;;;;;;16.84;45.89;101890.91;5074564;28;20025;-72
2022/05/03 10:26:09;;;;;;;8.73;7.30;;;;;;;16.95;45.90;101886.13;5086392;28;20027;-70
2022/05/03 10:29:00;;;;;;;10.88;6.82;;;;;;;17.17;45.89;101882.78;5094543;28;20038;-71
2022/05/03 10:31:26;;;;;;;12.13;6.93;;;;;;;17.39;45.00;101877.59;5093113;28;20043;-71
2022/05/03 10:33:51;;;;;;;8.93;6.82;;;;;;;17.57;44.61;101871.66;5094315;28;20028;-71
2022/05/03 10:36:32;;;;;;;13.80;6.38;;;;;;;17.82;45.30;101874.31;5088116;28;20064;-72
2022/05/03 10:39:19;;;;;;;8.10;6.45;;;;;;;18.05;44.53;101869.91;5093734;28;20077;-72
2022/05/03 10:41:55;;;;;;;10.95;7.10;;;;;;;18.11;43.00;101877.59;5094138;28;20487;-72
2022/05/03 10:44:53;;;;;;;10.07;7.10;;;;;;;18.17;43.51;101874.72;5094337;28;20111;-72
2022/05/03 10:47:21;;;;;;;9.60;7.30;;;;;;;18.16;42.89;101873.88;5093924;28;20028;-72
2022/05/03 10:50:17;;;;;;;10.90;7.65;;;;;;;18.48;44.31;101866.47;5090431;28;20035;-72
2022/05/03 10:53:05;;;;;;;9.02;6.53;;;;;;;18.93;42.89;101869.03;5093642;28;20075;-72
2022/05/03 10:55:33;;;;;;;8.18;6.15;;;;;;;19.15;40.75;101868.09;5078227;28;20074;-72
2022/05/03 10:58:31;;;;;;;8.23;6.03;;;;;;;19.39;39.91;101871.44;5093919;28;20410;-72
2022/05/03 11:01:05;;;;;;;8.27;6.22;;;;;;;19.35;40.44;101854.00;5093609;28;20161;-72
2022/05/03 11:03:35;;;;;;;8.30;6.55;;;;;;;19.55;41.00;101858.41;5091849;28;20028;-73
2022/05/03 11:06:15;;;;;;;8.05;5.80;;;;;;;19.76;40.97;101854.84;5093704;28;20016;-72
2022/05/03 11:11:39;;;;;;;8.55;6.78;;;;;;;20.01;39.39;101848.38;5073867;28;20036;-71
2022/05/03 11:14:20;;;;;;;7.07;5.93;;;;;;;20.08;38.91;101844.53;5072832;28;20051;-72
2022/05/03 11:16:51;;;;;;;10.27;6.72;;;;;;;19.86;39.12;101834.09;5073293;28;20028;-72
2022/05/03 11:19:20;;;;;;;12.73;6.40;;;;;;;19.74;39.92;101843.44;5073664;28;20039;-71
2022/05/03 11:21:47;;;;;;;9.10;6.43;;;;;;;19.84;40.37;101846.53;5072779;28;20024;-72
2022/05/03 11:24:23;;;;;;;6.75;5.43;;;;;;;20.01;39.15;101846.63;5072670;28;20048;-71
2022/05/03 11:26:51;;;;;;;6.15;4.57;;;;;;;20.43;39.28;101829.56;5076045;28;20073;-73
2022/05/03 11:29:17;;;;;;;5.82;5.00;;;;;;;20.74;37.94;101834.25;5081000;28;20494;-72
2022/05/03 11:31:52;;;;;;;6.60;5.82;;;;;;;21.08;38.45;101832.50;5079945;28;20020;-73
2022/05/03 11:34:18;;;;;;;7.63;5.20;;;;;;;21.18;36.46;101836.41;5087698;28;20060;-72
2022/05/03 11:36:48;;;;;;;7.15;5.20;;;;;;;21.46;36.50;101827.03;5078594;28;20041;-73
2022/05/03 11:39:14;;;;;;;5.63;4.40;;;;;;;21.71;36.72;101822.13;5081775;28;20024;-74
2022/05/03 11:41:42;;;;;;;8.35;4.45;;;;;;;22.02;36.46;101820.41;5088901;28;20024;-73
2022/05/03 11:44:08;;;;;;;9.02;4.88;;;;;;;22.29;34.11;101814.50;5079031;28;20418;-73
2022/05/03 11:46:33;;;;;;;6.50;5.10;;;;;;;22.99;34.33;101807.72;5072467;28;20025;-74
2022/05/03 11:49:02;;;;;;;7.95;6.22;;;;;;;24.22;32.77;101808.00;5072642;28;20111;-74
2022/05/03 11:57:41;;;;;;;11.40;6.72;;;;;;;26.60;29.36;101805.47;5087722;28;20097;-73
2022/05/03 12:00:11;;;;;;;7.95;5.47;;;;;;;24.37;29.05;101801.66;5076564;28;20523;-74
2022/05/03 12:02:44;;;;;;;14.50;6.00;;;;;;;23.06;33.13;101803.75;5071986;28;20025;-74
2022/05/03 12:05:14;;;;;;;;;;;;;;;22.56;34.25;101810.25;5073398;28;20469;-73
2022/05/03 12:07:54;;;;;;;12.30;6.13;;;;;;;21.49;35.70;101809.16;5072584;28;19916;-74
2022/05/03 12:10:37;;;;;;;9.82;6.97;;;;;;;20.91;36.91;101806.88;5080711;28;20580;-73
2022/05/03 12:13:08;;;;;;;;;;;;;;;20.92;37.20;101811.25;5072675;28;20028;-74
2022/05/03 12:15:39;;;;;;;8.05;5.70;;;;;;;20.57;37.34;101813.06;5074318;28;20379;-74
2022/05/03 12:18:29;;;;;;;6.60;5.03;;;;;;;20.49;36.75;101801.94;5073621;28;20028;-74
2022/05/03 12:20:57;;;;;;;7.00;4.28;;;;;;;20.33;36.93;101800.03;5082767;28;20471;-73
2022/05/03 12:23:38;;;;;;;7.25;4.60;;;;;;;20.46;38.35;101795.00;5071687;28;20059;-74
2022/05/03 12:26:12;;;;;;;5.57;3.50;;;;;;;20.57;37.00;101794.50;5077325;28;20506;-74
2022/05/03 12:28:38;;;;;;;5.40;4.10;;;;;;;20.51;36.98;101790.38;5088478;28;20023;-73
2022/05/03 12:31:08;;;;;;;5.20;4.28;;;;;;;20.59;36.51;101787.31;5071503;28;20162;-74